Yangon, Burma
Current Conditions -  °F | °C
As of 3:00 PM on Monday 24 Nov 2014 (Local Time) from VYYY Reporting Station
Few Clouds Few Clouds  
Wind Chill: 31°   Ceiling: Unl
Heat Index: 36°   Visibility: 6mi
Dew Point: 24°   Wind: 7mph
Humidity: 66%   Direction: 350°N
Pressure: 29.83"   Gusts: NA
Location:  16.79°N, 96.15°E
Report Text: VYYY 240900Z 35006KT 9000 FEW025 FEW300 31/24 Q1010 NOSIG
Loading
Personal Weather Stations






























Interactive Weather Map New forecast layout! Learn more

10-Day Weather Forecast

Advertisements
Track Severe Weather on mobile